aviador You're here:

KDMO Decoded Metar

SEDALIA in MO, USA
Report Time2018-06-24 21:53:00
UTC Time2018-06-24 22:44:14
Flight Rules vfr VFR
Wind120° at 06 kt
W.Decomp.*RWY 18: 2.7 kt HW 5.3 kt LCW
RWY 05: 2.3 kt HW 5.5 kt RCW
W.Rank120° ranks 17
Current wind is below 120° avg. (6.7)
Visibility9999 m
Phenomena:N/A
Clouds:N/A
Expected CloudBase > 2,400 ft AGL from Temp-Dew spread
CeilingNone
Temp25°C (ISA +12)
Dew Point19°C (69% RH)
QNH1013 hPa
Density Alt2,556 ft
Elevation899 ft
Report Wrong Elevation
Raw Report
KDMO 242153Z AUTO 12006KT 10SM CLR 25/19 A2991 RMK AO2 SLP123
T02500194 $=

Extra information for KDMO:More info

Metar Taf Metar & Taf Last 4 Metars F.Rules Stats Wind Profile Meteogram Temp Stats Airport Information Weather charts Add Link Nearby VenuesMetar ALERT Operation Metar Decoded Social comments

AIRNAV info for KDMO